This is the latest recevied weather packets stored in our database for station/object KA4YMY. If no packets are shown the sender has not sent any weather packets the latest 10 day(s).
| Time | Temp. | Humidity | Pressure | Rain* | Wind** | Luminosity | Snow |
|---|---|---|---|---|---|---|---|
| 1777838716 | 20° C | 40% | 1016.6 hPa | 0 mm | - | - | - |
| 1777838116 | 20° C | 37% | 1016.6 hPa | 0 mm | - | - | - |
| 1777837515 | 20° C | 41% | 1016.7 hPa | 0 mm | - | - | - |
| 1777836916 | 20.56° C | 37% | 1017 hPa | 0 mm | - | - | - |
| 1777836316 | 20.56° C | 34% | 1017.1 hPa | 0 mm | - | - | - |
| 1777835718 | 21.11° C | 35% | 1017.3 hPa | 0 mm | - | - | - |
| 1777835117 | 21.11° C | 38% | 1017.5 hPa | 0 mm | - | - | - |
| 1777834517 | 20.56° C | 38% | 1017.6 hPa | 0 mm | - | - | - |
| 1777833918 | 20° C | 39% | 1017.8 hPa | 0 mm | - | - | - |
| 1777833318 | 20° C | 37% | 1017.8 hPa | 0 mm | - | - | - |
| 1777832718 | 20° C | 40% | 1018 hPa | 0 mm | - | - | - |
| 1777832118 | 20.56° C | 38% | 1018 hPa | 0 mm | - | - | - |
| 1777831518 | 20.56° C | 36% | 1018.2 hPa | 0 mm | - | - | - |
| 1777830917 | 20° C | 44% | 1018.3 hPa | 0 mm | - | - | - |
| 1777830317 | 19.44° C | 40% | 1018.3 hPa | 0 mm | - | - | - |
| 1777829717 | 19.44° C | 44% | 1018.6 hPa | 0 mm | - | - | - |
| 1777829117 | 19.44° C | 44% | 1018.8 hPa | 0 mm | - | - | - |
| 1777828517 | 18.89° C | 49% | 1019 hPa | 0 mm | - | - | - |
| 1777827918 | 19.44° C | 43% | 1019.1 hPa | 0 mm | - | - | - |
| 1777827317 | 19.44° C | 46% | 1019.3 hPa | 0 mm | - | - | - |
| 1777826717 | 19.44° C | 45% | 1019.4 hPa | 0 mm | - | - | - |
| 1777826117 | 18.33° C | 48% | 1019.6 hPa | 0 mm | - | - | - |
| 1777825517 | 18.89° C | 42% | 1019.7 hPa | 0 mm | - | - | - |
| 1777824917 | 19.44° C | 43% | 1019.8 hPa | 0 mm | - | - | - |
| 1777824317 | 18.89° C | 47% | 1020 hPa | 0 mm | - | - | - |
* Rain latest hour (hover to see other rain measurements)
** Current wind speed in m/s (hover to see current wind gust speed)